sensor_id;sensor_type;location;lat;lon;timestamp;P1;durP1;ratioP1;P2;durP2;ratioP2
43580;SDS011;29175;51.030;4.606;2023-03-30T00:00:07;10.15;;;2.60;;
43580;SDS011;29175;51.030;4.606;2023-03-30T00:02:43;7.65;;;3.00;;
43580;SDS011;29175;51.030;4.606;2023-03-30T00:05:10;7.88;;;3.10;;
43580;SDS011;29175;51.030;4.606;2023-03-30T00:07:37;9.80;;;2.97;;
43580;SDS011;29175;51.030;4.606;2023-03-30T00:10:07;13.45;;;2.97;;
43580;SDS011;29175;51.030;4.606;2023-03-30T00:12:37;6.88;;;2.33;;
43580;SDS011;29175;51.030;4.606;2023-03-30T00:15:04;5.28;;;2.58;;
43580;SDS011;29175;51.030;4.606;2023-03-30T00:17:32;12.48;;;2.78;;
43580;SDS011;29175;51.030;4.606;2023-03-30T00:19:58;13.65;;;3.05;;
43580;SDS011;29175;51.030;4.606;2023-03-30T00:22:26;10.40;;;2.90;;
43580;SDS011;29175;51.030;4.606;2023-03-30T00:24:52;24.38;;;2.97;;
43580;SDS011;29175;51.030;4.606;2023-03-30T00:27:18;5.97;;;2.65;;
43580;SDS011;29175;51.030;4.606;2023-03-30T00:29:44;5.88;;;2.42;;
43580;SDS011;29175;51.030;4.606;2023-03-30T00:32:10;13.27;;;2.90;;
43580;SDS011;29175;51.030;4.606;2023-03-30T00:34:36;5.90;;;2.58;;
43580;SDS011;29175;51.030;4.606;2023-03-30T00:37:02;9.57;;;2.92;;
43580;SDS011;29175;51.030;4.606;2023-03-30T00:39:28;11.63;;;2.70;;
43580;SDS011;29175;51.030;4.606;2023-03-30T00:41:54;12.30;;;2.90;;
43580;SDS011;29175;51.030;4.606;2023-03-30T00:47:23;11.90;;;2.60;;
43580;SDS011;29175;51.030;4.606;2023-03-30T00:49:50;8.95;;;2.58;;
43580;SDS011;29175;51.030;4.606;2023-03-30T00:52:16;11.55;;;2.95;;
43580;SDS011;29175;51.030;4.606;2023-03-30T00:54:49;6.88;;;2.30;;
43580;SDS011;29175;51.030;4.606;2023-03-30T00:57:16;6.72;;;2.55;;
43580;SDS011;29175;51.030;4.606;2023-03-30T00:59:45;7.65;;;2.20;;
43580;SDS011;29175;51.030;4.606;2023-03-30T01:02:12;4.45;;;2.30;;
43580;SDS011;29175;51.030;4.606;2023-03-30T01:04:38;7.65;;;2.47;;
43580;SDS011;29175;51.030;4.606;2023-03-30T01:07:04;9.65;;;2.45;;
43580;SDS011;29175;51.030;4.606;2023-03-30T01:09:31;9.00;;;2.45;;
43580;SDS011;29175;51.030;4.606;2023-03-30T01:11:57;10.20;;;2.47;;
43580;SDS011;29175;51.030;4.606;2023-03-30T01:14:23;7.38;;;2.17;;
43580;SDS011;29175;51.030;4.606;2023-03-30T01:17:05;13.35;;;2.65;;
43580;SDS011;29175;51.030;4.606;2023-03-30T01:19:56;5.38;;;2.03;;
43580;SDS011;29175;51.030;4.606;2023-03-30T01:28:12;5.28;;;2.30;;
43580;SDS011;29175;51.030;4.606;2023-03-30T01:33:30;11.15;;;2.50;;
43580;SDS011;29175;51.030;4.606;2023-03-30T01:39:34;8.07;;;2.33;;
43580;SDS011;29175;51.030;4.606;2023-03-30T01:42:23;8.43;;;2.10;;
43580;SDS011;29175;51.030;4.606;2023-03-30T01:44:59;7.18;;;2.70;;
43580;SDS011;29175;51.030;4.606;2023-03-30T01:50:23;6.38;;;1.90;;
43580;SDS011;29175;51.030;4.606;2023-03-30T01:52:59;7.10;;;2.03;;
43580;SDS011;29175;51.030;4.606;2023-03-30T01:56:21;7.90;;;2.42;;
43580;SDS011;29175;51.030;4.606;2023-03-30T01:58:32;6.43;;;1.80;;
43580;SDS011;29175;51.030;4.606;2023-03-30T02:01:18;9.80;;;2.13;;
43580;SDS011;29175;51.030;4.606;2023-03-30T02:03:49;5.90;;;2.13;;
43580;SDS011;29175;51.030;4.606;2023-03-30T02:06:20;3.78;;;2.20;;
43580;SDS011;29175;51.030;4.606;2023-03-30T02:08:51;7.63;;;2.10;;
43580;SDS011;29175;51.030;4.606;2023-03-30T02:11:20;7.85;;;2.17;;
43580;SDS011;29175;51.030;4.606;2023-03-30T02:13:48;4.28;;;2.25;;
43580;SDS011;29175;51.030;4.606;2023-03-30T02:16:20;4.85;;;1.75;;
43580;SDS011;29175;51.030;4.606;2023-03-30T02:18:49;6.90;;;2.70;;
43580;SDS011;29175;51.030;4.606;2023-03-30T02:21:15;3.78;;;1.80;;
43580;SDS011;29175;51.030;4.606;2023-03-30T02:23:42;9.77;;;2.50;;
43580;SDS011;29175;51.030;4.606;2023-03-30T02:26:10;4.38;;;1.80;;
43580;SDS011;29175;51.030;4.606;2023-03-30T02:28:37;6.95;;;2.35;;
43580;SDS011;29175;51.030;4.606;2023-03-30T02:31:03;8.65;;;1.98;;
43580;SDS011;29175;51.030;4.606;2023-03-30T02:33:40;8.75;;;2.67;;
43580;SDS011;29175;51.030;4.606;2023-03-30T02:39:19;7.60;;;2.50;;
43580;SDS011;29175;51.030;4.606;2023-03-30T02:48:02;7.75;;;2.28;;
43580;SDS011;29175;51.030;4.606;2023-03-30T02:50:41;6.68;;;2.17;;
43580;SDS011;29175;51.030;4.606;2023-03-30T02:55:59;8.80;;;2.47;;
43580;SDS011;29175;51.030;4.606;2023-03-30T02:58:38;7.15;;;2.20;;
43580;SDS011;29175;51.030;4.606;2023-03-30T03:03:35;8.75;;;2.20;;
43580;SDS011;29175;51.030;4.606;2023-03-30T03:06:04;10.27;;;2.25;;
43580;SDS011;29175;51.030;4.606;2023-03-30T03:08:37;8.93;;;2.30;;
43580;SDS011;29175;51.030;4.606;2023-03-30T03:11:05;12.85;;;2.20;;
43580;SDS011;29175;51.030;4.606;2023-03-30T03:13:32;4.60;;;2.08;;
43580;SDS011;29175;51.030;4.606;2023-03-30T03:16:01;7.20;;;2.20;;
43580;SDS011;29175;51.030;4.606;2023-03-30T03:18:28;19.95;;;2.55;;
43580;SDS011;29175;51.030;4.606;2023-03-30T03:20:55;10.85;;;2.65;;
43580;SDS011;29175;51.030;4.606;2023-03-30T03:23:21;8.15;;;2.10;;
43580;SDS011;29175;51.030;4.606;2023-03-30T03:25:47;7.20;;;2.53;;
43580;SDS011;29175;51.030;4.606;2023-03-30T03:28:13;10.00;;;2.67;;
43580;SDS011;29175;51.030;4.606;2023-03-30T03:30:39;7.57;;;2.60;;
43580;SDS011;29175;51.030;4.606;2023-03-30T03:33:05;13.30;;;2.80;;
43580;SDS011;29175;51.030;4.606;2023-03-30T03:35:31;7.78;;;2.30;;
43580;SDS011;29175;51.030;4.606;2023-03-30T03:37:57;8.73;;;2.15;;
43580;SDS011;29175;51.030;4.606;2023-03-30T03:40:23;5.00;;;2.20;;
43580;SDS011;29175;51.030;4.606;2023-03-30T03:42:49;5.10;;;2.20;;
43580;SDS011;29175;51.030;4.606;2023-03-30T03:45:14;6.50;;;2.10;;
43580;SDS011;29175;51.030;4.606;2023-03-30T03:47:40;9.80;;;2.35;;
43580;SDS011;29175;51.030;4.606;2023-03-30T03:50:06;7.28;;;2.40;;
43580;SDS011;29175;51.030;4.606;2023-03-30T03:52:34;11.85;;;2.45;;
43580;SDS011;29175;51.030;4.606;2023-03-30T03:55:01;6.22;;;2.08;;
43580;SDS011;29175;51.030;4.606;2023-03-30T03:57:29;5.97;;;1.92;;
43580;SDS011;29175;51.030;4.606;2023-03-30T03:59:55;6.55;;;2.42;;
43580;SDS011;29175;51.030;4.606;2023-03-30T04:02:22;7.32;;;1.92;;
43580;SDS011;29175;51.030;4.606;2023-03-30T04:04:48;5.63;;;2.15;;
43580;SDS011;29175;51.030;4.606;2023-03-30T04:07:14;5.13;;;2.30;;
43580;SDS011;29175;51.030;4.606;2023-03-30T04:09:40;7.13;;;1.90;;
43580;SDS011;29175;51.030;4.606;2023-03-30T04:12:05;10.40;;;2.60;;
43580;SDS011;29175;51.030;4.606;2023-03-30T04:14:31;8.45;;;2.22;;
43580;SDS011;29175;51.030;4.606;2023-03-30T04:16:58;12.80;;;2.00;;
43580;SDS011;29175;51.030;4.606;2023-03-30T04:19:24;14.85;;;2.75;;
43580;SDS011;29175;51.030;4.606;2023-03-30T04:21:52;7.07;;;2.22;;
43580;SDS011;29175;51.030;4.606;2023-03-30T04:24:19;6.55;;;2.20;;
43580;SDS011;29175;51.030;4.606;2023-03-30T04:26:46;14.48;;;2.30;;
43580;SDS011;29175;51.030;4.606;2023-03-30T04:29:15;10.90;;;2.65;;
43580;SDS011;29175;51.030;4.606;2023-03-30T04:31:42;5.65;;;2.25;;
43580;SDS011;29175;51.030;4.606;2023-03-30T04:34:11;8.77;;;2.67;;
43580;SDS011;29175;51.030;4.606;2023-03-30T04:36:37;8.93;;;2.47;;
43580;SDS011;29175;51.030;4.606;2023-03-30T04:39:07;8.95;;;2.53;;
43580;SDS011;29175;51.030;4.606;2023-03-30T04:41:35;9.85;;;2.30;;
43580;SDS011;29175;51.030;4.606;2023-03-30T04:44:03;5.72;;;2.28;;
43580;SDS011;29175;51.030;4.606;2023-03-30T04:46:33;7.07;;;2.45;;
43580;SDS011;29175;51.030;4.606;2023-03-30T04:49:00;11.70;;;2.30;;
43580;SDS011;29175;51.030;4.606;2023-03-30T04:51:27;6.35;;;2.38;;
43580;SDS011;29175;51.030;4.606;2023-03-30T04:53:53;11.35;;;2.35;;
43580;SDS011;29175;51.030;4.606;2023-03-30T04:56:19;10.52;;;2.00;;
43580;SDS011;29175;51.030;4.606;2023-03-30T04:58:45;12.80;;;3.05;;
43580;SDS011;29175;51.030;4.606;2023-03-30T05:01:11;3.63;;;2.03;;
43580;SDS011;29175;51.030;4.606;2023-03-30T05:03:37;4.93;;;1.90;;
43580;SDS011;29175;51.030;4.606;2023-03-30T05:06:03;9.25;;;2.40;;
43580;SDS011;29175;51.030;4.606;2023-03-30T05:08:29;10.13;;;2.45;;
43580;SDS011;29175;51.030;4.606;2023-03-30T05:10:59;7.35;;;2.42;;
43580;SDS011;29175;51.030;4.606;2023-03-30T05:13:26;5.10;;;2.38;;
43580;SDS011;29175;51.030;4.606;2023-03-30T05:15:53;8.75;;;2.03;;
43580;SDS011;29175;51.030;4.606;2023-03-30T05:18:20;8.90;;;2.30;;
43580;SDS011;29175;51.030;4.606;2023-03-30T05:20:46;8.60;;;2.83;;
43580;SDS011;29175;51.030;4.606;2023-03-30T05:23:12;9.48;;;2.70;;
43580;SDS011;29175;51.030;4.606;2023-03-30T05:25:37;5.65;;;2.30;;
43580;SDS011;29175;51.030;4.606;2023-03-30T05:28:05;9.75;;;2.10;;
43580;SDS011;29175;51.030;4.606;2023-03-30T05:30:31;6.07;;;2.13;;
43580;SDS011;29175;51.030;4.606;2023-03-30T05:32:58;9.20;;;2.88;;
43580;SDS011;29175;51.030;4.606;2023-03-30T05:35:23;9.23;;;2.90;;
43580;SDS011;29175;51.030;4.606;2023-03-30T05:37:49;5.80;;;2.28;;
43580;SDS011;29175;51.030;4.606;2023-03-30T05:40:15;5.28;;;2.20;;
43580;SDS011;29175;51.030;4.606;2023-03-30T05:42:42;6.05;;;2.80;;
43580;SDS011;29175;51.030;4.606;2023-03-30T05:45:08;6.53;;;2.63;;
43580;SDS011;29175;51.030;4.606;2023-03-30T05:47:35;6.88;;;2.40;;
43580;SDS011;29175;51.030;4.606;2023-03-30T05:50:01;7.57;;;3.00;;
43580;SDS011;29175;51.030;4.606;2023-03-30T05:52:27;9.80;;;2.70;;
43580;SDS011;29175;51.030;4.606;2023-03-30T05:54:52;6.18;;;2.97;;
43580;SDS011;29175;51.030;4.606;2023-03-30T05:57:18;10.75;;;2.63;;
43580;SDS011;29175;51.030;4.606;2023-03-30T05:59:45;12.43;;;2.88;;
43580;SDS011;29175;51.030;4.606;2023-03-30T06:02:11;7.95;;;2.90;;
43580;SDS011;29175;51.030;4.606;2023-03-30T06:04:38;12.88;;;3.40;;
43580;SDS011;29175;51.030;4.606;2023-03-30T06:07:04;8.65;;;2.92;;
43580;SDS011;29175;51.030;4.606;2023-03-30T06:09:30;11.13;;;2.67;;
43580;SDS011;29175;51.030;4.606;2023-03-30T06:11:56;23.48;;;3.28;;
43580;SDS011;29175;51.030;4.606;2023-03-30T06:14:22;10.23;;;3.25;;
43580;SDS011;29175;51.030;4.606;2023-03-30T06:16:48;17.85;;;3.00;;
43580;SDS011;29175;51.030;4.606;2023-03-30T06:19:14;12.98;;;2.75;;
43580;SDS011;29175;51.030;4.606;2023-03-30T06:21:40;12.48;;;2.67;;
43580;SDS011;29175;51.030;4.606;2023-03-30T06:24:06;11.02;;;2.50;;
43580;SDS011;29175;51.030;4.606;2023-03-30T06:26:32;11.43;;;2.78;;
43580;SDS011;29175;51.030;4.606;2023-03-30T06:28:58;18.05;;;3.40;;
43580;SDS011;29175;51.030;4.606;2023-03-30T06:31:24;14.40;;;3.10;;
43580;SDS011;29175;51.030;4.606;2023-03-30T06:33:50;8.32;;;2.78;;
43580;SDS011;29175;51.030;4.606;2023-03-30T06:36:16;12.27;;;2.92;;
43580;SDS011;29175;51.030;4.606;2023-03-30T06:38:42;15.25;;;3.20;;
43580;SDS011;29175;51.030;4.606;2023-03-30T06:41:09;23.20;;;3.60;;
43580;SDS011;29175;51.030;4.606;2023-03-30T06:43:36;14.85;;;2.35;;
43580;SDS011;29175;51.030;4.606;2023-03-30T06:46:03;17.23;;;3.30;;
43580;SDS011;29175;51.030;4.606;2023-03-30T06:48:29;25.40;;;3.53;;
43580;SDS011;29175;51.030;4.606;2023-03-30T06:50:55;14.98;;;3.17;;
43580;SDS011;29175;51.030;4.606;2023-03-30T06:53:21;13.30;;;3.50;;
43580;SDS011;29175;51.030;4.606;2023-03-30T06:55:51;13.93;;;3.83;;
43580;SDS011;29175;51.030;4.606;2023-03-30T06:58:18;16.08;;;3.55;;
43580;SDS011;29175;51.030;4.606;2023-03-30T07:00:45;17.42;;;3.53;;
43580;SDS011;29175;51.030;4.606;2023-03-30T07:03:11;15.95;;;3.00;;
43580;SDS011;29175;51.030;4.606;2023-03-30T07:05:37;19.77;;;3.58;;
43580;SDS011;29175;51.030;4.606;2023-03-30T07:08:03;14.32;;;3.47;;
43580;SDS011;29175;51.030;4.606;2023-03-30T07:10:30;8.68;;;2.95;;
43580;SDS011;29175;51.030;4.606;2023-03-30T07:12:56;15.27;;;3.13;;
43580;SDS011;29175;51.030;4.606;2023-03-30T07:15:22;9.15;;;2.92;;
43580;SDS011;29175;51.030;4.606;2023-03-30T07:17:48;16.38;;;3.30;;
43580;SDS011;29175;51.030;4.606;2023-03-30T07:20:14;15.02;;;2.85;;
43580;SDS011;29175;51.030;4.606;2023-03-30T07:22:40;11.27;;;3.30;;
43580;SDS011;29175;51.030;4.606;2023-03-30T07:25:07;15.45;;;2.80;;
43580;SDS011;29175;51.030;4.606;2023-03-30T07:27:34;14.52;;;3.25;;
43580;SDS011;29175;51.030;4.606;2023-03-30T07:30:01;15.55;;;3.20;;
43580;SDS011;29175;51.030;4.606;2023-03-30T07:32:28;12.27;;;3.25;;
43580;SDS011;29175;51.030;4.606;2023-03-30T07:34:53;23.42;;;3.92;;
43580;SDS011;29175;51.030;4.606;2023-03-30T07:37:19;13.32;;;2.97;;
43580;SDS011;29175;51.030;4.606;2023-03-30T07:39:45;13.63;;;3.33;;
43580;SDS011;29175;51.030;4.606;2023-03-30T07:42:11;16.25;;;3.17;;
43580;SDS011;29175;51.030;4.606;2023-03-30T07:44:37;21.15;;;3.38;;
43580;SDS011;29175;51.030;4.606;2023-03-30T07:47:03;14.85;;;3.92;;
43580;SDS011;29175;51.030;4.606;2023-03-30T07:49:31;15.45;;;3.67;;
43580;SDS011;29175;51.030;4.606;2023-03-30T07:51:57;17.73;;;3.20;;
43580;SDS011;29175;51.030;4.606;2023-03-30T07:54:23;22.70;;;3.67;;
43580;SDS011;29175;51.030;4.606;2023-03-30T07:56:49;19.80;;;4.05;;
43580;SDS011;29175;51.030;4.606;2023-03-30T07:59:18;19.83;;;3.45;;
43580;SDS011;29175;51.030;4.606;2023-03-30T08:01:45;22.05;;;3.53;;
43580;SDS011;29175;51.030;4.606;2023-03-30T08:04:14;16.60;;;3.78;;
43580;SDS011;29175;51.030;4.606;2023-03-30T08:06:40;16.80;;;3.67;;
43580;SDS011;29175;51.030;4.606;2023-03-30T08:09:06;17.70;;;3.60;;
43580;SDS011;29175;51.030;4.606;2023-03-30T08:11:33;19.17;;;3.92;;
43580;SDS011;29175;51.030;4.606;2023-03-30T08:14:00;16.52;;;3.45;;
43580;SDS011;29175;51.030;4.606;2023-03-30T08:16:26;25.08;;;4.30;;
43580;SDS011;29175;51.030;4.606;2023-03-30T08:18:52;16.98;;;3.92;;
43580;SDS011;29175;51.030;4.606;2023-03-30T08:21:19;22.50;;;3.92;;
43580;SDS011;29175;51.030;4.606;2023-03-30T08:23:45;17.55;;;4.22;;
43580;SDS011;29175;51.030;4.606;2023-03-30T08:26:11;23.27;;;4.57;;
43580;SDS011;29175;51.030;4.606;2023-03-30T08:28:37;16.95;;;4.20;;
43580;SDS011;29175;51.030;4.606;2023-03-30T08:31:06;18.25;;;5.10;;
43580;SDS011;29175;51.030;4.606;2023-03-30T08:33:34;23.45;;;4.97;;
43580;SDS011;29175;51.030;4.606;2023-03-30T08:36:01;20.67;;;4.47;;
43580;SDS011;29175;51.030;4.606;2023-03-30T08:38:27;17.10;;;4.03;;
43580;SDS011;29175;51.030;4.606;2023-03-30T08:40:54;15.93;;;3.97;;
43580;SDS011;29175;51.030;4.606;2023-03-30T08:46:13;32.42;;;4.18;;
43580;SDS011;29175;51.030;4.606;2023-03-30T08:48:40;28.25;;;4.15;;
43580;SDS011;29175;51.030;4.606;2023-03-30T08:51:10;12.60;;;3.65;;
43580;SDS011;29175;51.030;4.606;2023-03-30T08:53:49;20.83;;;3.90;;
43580;SDS011;29175;51.030;4.606;2023-03-30T08:56:22;17.52;;;3.83;;
43580;SDS011;29175;51.030;4.606;2023-03-30T09:01:53;15.85;;;3.40;;
43580;SDS011;29175;51.030;4.606;2023-03-30T09:07:16;14.95;;;3.60;;
43580;SDS011;29175;51.030;4.606;2023-03-30T09:09:46;17.55;;;3.55;;
43580;SDS011;29175;51.030;4.606;2023-03-30T09:17:55;14.35;;;3.67;;
43580;SDS011;29175;51.030;4.606;2023-03-30T09:20:30;14.52;;;4.00;;
43580;SDS011;29175;51.030;4.606;2023-03-30T09:22:59;22.88;;;4.00;;
43580;SDS011;29175;51.030;4.606;2023-03-30T09:31:11;20.37;;;4.67;;
43580;SDS011;29175;51.030;4.606;2023-03-30T09:36:29;25.75;;;3.42;;
43580;SDS011;29175;51.030;4.606;2023-03-30T09:38:59;24.17;;;4.55;;
43580;SDS011;29175;51.030;4.606;2023-03-30T09:41:45;22.25;;;3.80;;
43580;SDS011;29175;51.030;4.606;2023-03-30T09:47:40;13.70;;;3.85;;
43580;SDS011;29175;51.030;4.606;2023-03-30T09:50:07;19.50;;;3.85;;
43580;SDS011;29175;51.030;4.606;2023-03-30T09:52:37;20.38;;;3.58;;
43580;SDS011;29175;51.030;4.606;2023-03-30T09:55:19;13.15;;;3.30;;
43580;SDS011;29175;51.030;4.606;2023-03-30T09:57:53;17.30;;;3.85;;
43580;SDS011;29175;51.030;4.606;2023-03-30T10:00:44;17.75;;;3.92;;
43580;SDS011;29175;51.030;4.606;2023-03-30T10:03:19;20.55;;;4.10;;
43580;SDS011;29175;51.030;4.606;2023-03-30T10:05:59;12.85;;;3.42;;
43580;SDS011;29175;51.030;4.606;2023-03-30T10:11:38;12.68;;;2.88;;
43580;SDS011;29175;51.030;4.606;2023-03-30T10:14:05;16.88;;;3.47;;
43580;SDS011;29175;51.030;4.606;2023-03-30T10:16:35;11.02;;;3.22;;
43580;SDS011;29175;51.030;4.606;2023-03-30T10:19:02;12.45;;;2.92;;
43580;SDS011;29175;51.030;4.606;2023-03-30T10:21:40;15.45;;;3.58;;
43580;SDS011;29175;51.030;4.606;2023-03-30T10:26:38;11.88;;;3.03;;
43580;SDS011;29175;51.030;4.606;2023-03-30T10:29:11;9.55;;;3.20;;
43580;SDS011;29175;51.030;4.606;2023-03-30T10:34:13;8.75;;;2.92;;
43580;SDS011;29175;51.030;4.606;2023-03-30T10:36:45;13.02;;;2.92;;
43580;SDS011;29175;51.030;4.606;2023-03-30T10:39:17;14.85;;;3.30;;
43580;SDS011;29175;51.030;4.606;2023-03-30T10:41:53;16.08;;;3.63;;
43580;SDS011;29175;51.030;4.606;2023-03-30T10:44:30;16.33;;;3.50;;
43580;SDS011;29175;51.030;4.606;2023-03-30T10:50:08;11.70;;;2.67;;
43580;SDS011;29175;51.030;4.606;2023-03-30T11:02:16;17.38;;;3.50;;
43580;SDS011;29175;51.030;4.606;2023-03-30T11:05:14;11.15;;;3.92;;
43580;SDS011;29175;51.030;4.606;2023-03-30T11:07:46;17.20;;;3.50;;
43580;SDS011;29175;51.030;4.606;2023-03-30T11:10:20;13.63;;;3.72;;
43580;SDS011;29175;51.030;4.606;2023-03-30T11:13:21;10.57;;;2.83;;
43580;SDS011;29175;51.030;4.606;2023-03-30T11:18:20;20.00;;;3.75;;
43580;SDS011;29175;51.030;4.606;2023-03-30T11:21:20;17.00;;;3.47;;
43580;SDS011;29175;51.030;4.606;2023-03-30T11:23:53;17.05;;;3.50;;
43580;SDS011;29175;51.030;4.606;2023-03-30T11:26:27;19.05;;;3.78;;
43580;SDS011;29175;51.030;4.606;2023-03-30T11:31:46;18.85;;;3.88;;
43580;SDS011;29175;51.030;4.606;2023-03-30T11:34:50;17.40;;;3.67;;
43580;SDS011;29175;51.030;4.606;2023-03-30T11:37:51;19.92;;;3.75;;
43580;SDS011;29175;51.030;4.606;2023-03-30T11:40:33;18.17;;;3.38;;
43580;SDS011;29175;51.030;4.606;2023-03-30T11:43:02;14.70;;;3.15;;
43580;SDS011;29175;51.030;4.606;2023-03-30T12:05:20;20.10;;;4.30;;
43580;SDS011;29175;51.030;4.606;2023-03-30T12:10:44;28.73;;;4.38;;
43580;SDS011;29175;51.030;4.606;2023-03-30T12:13:15;22.48;;;3.75;;
43580;SDS011;29175;51.030;4.606;2023-03-30T12:15:54;18.30;;;3.90;;
43580;SDS011;29175;51.030;4.606;2023-03-30T12:18:30;13.65;;;3.83;;
43580;SDS011;29175;51.030;4.606;2023-03-30T12:21:29;20.38;;;3.83;;
43580;SDS011;29175;51.030;4.606;2023-03-30T12:26:49;16.42;;;3.35;;
43580;SDS011;29175;51.030;4.606;2023-03-30T12:29:16;15.07;;;3.78;;
43580;SDS011;29175;51.030;4.606;2023-03-30T12:34:25;21.75;;;3.72;;
43580;SDS011;29175;51.030;4.606;2023-03-30T12:36:52;17.93;;;3.87;;
43580;SDS011;29175;51.030;4.606;2023-03-30T12:39:38;18.73;;;3.42;;
43580;SDS011;29175;51.030;4.606;2023-03-30T12:45:17;20.48;;;3.97;;
43580;SDS011;29175;51.030;4.606;2023-03-30T12:50:52;28.05;;;4.13;;
43580;SDS011;29175;51.030;4.606;2023-03-30T12:53:55;22.20;;;4.25;;
43580;SDS011;29175;51.030;4.606;2023-03-30T13:00:07;14.48;;;3.65;;
43580;SDS011;29175;51.030;4.606;2023-03-30T13:03:05;21.58;;;3.85;;
43580;SDS011;29175;51.030;4.606;2023-03-30T13:05:40;11.10;;;3.40;;
43580;SDS011;29175;51.030;4.606;2023-03-30T13:08:20;11.00;;;3.30;;
43580;SDS011;29175;51.030;4.606;2023-03-30T13:11:07;18.00;;;3.38;;
43580;SDS011;29175;51.030;4.606;2023-03-30T13:13:52;20.13;;;3.20;;
43580;SDS011;29175;51.030;4.606;2023-03-30T13:19:21;21.42;;;3.58;;
43580;SDS011;29175;51.030;4.606;2023-03-30T13:25:38;14.25;;;4.53;;
43580;SDS011;29175;51.030;4.606;2023-03-30T13:27:55;19.95;;;4.15;;
43580;SDS011;29175;51.030;4.606;2023-03-30T13:30:23;21.85;;;4.10;;
43580;SDS011;29175;51.030;4.606;2023-03-30T13:35:27;16.48;;;3.55;;
43580;SDS011;29175;51.030;4.606;2023-03-30T13:44:14;15.43;;;3.92;;
43580;SDS011;29175;51.030;4.606;2023-03-30T13:52:23;12.80;;;3.50;;
43580;SDS011;29175;51.030;4.606;2023-03-30T13:54:55;16.27;;;3.90;;
43580;SDS011;29175;51.030;4.606;2023-03-30T13:57:22;18.38;;;4.82;;
43580;SDS011;29175;51.030;4.606;2023-03-30T14:02:45;14.23;;;4.45;;
43580;SDS011;29175;51.030;4.606;2023-03-30T14:05:24;15.32;;;3.60;;
43580;SDS011;29175;51.030;4.606;2023-03-30T14:07:55;20.08;;;3.63;;
43580;SDS011;29175;51.030;4.606;2023-03-30T14:10:22;17.77;;;3.58;;
43580;SDS011;29175;51.030;4.606;2023-03-30T14:12:51;12.38;;;3.58;;
43580;SDS011;29175;51.030;4.606;2023-03-30T14:17:52;16.30;;;3.10;;
43580;SDS011;29175;51.030;4.606;2023-03-30T14:20:43;19.70;;;3.35;;
43580;SDS011;29175;51.030;4.606;2023-03-30T14:23:25;10.13;;;2.92;;
43580;SDS011;29175;51.030;4.606;2023-03-30T14:26:02;11.30;;;2.90;;
43580;SDS011;29175;51.030;4.606;2023-03-30T14:28:36;21.25;;;3.47;;
43580;SDS011;29175;51.030;4.606;2023-03-30T14:31:03;20.27;;;3.42;;
43580;SDS011;29175;51.030;4.606;2023-03-30T14:33:37;16.73;;;3.15;;
43580;SDS011;29175;51.030;4.606;2023-03-30T14:36:04;17.33;;;3.92;;
43580;SDS011;29175;51.030;4.606;2023-03-30T14:38:33;13.55;;;3.10;;
43580;SDS011;29175;51.030;4.606;2023-03-30T14:41:25;16.35;;;3.30;;
43580;SDS011;29175;51.030;4.606;2023-03-30T14:43:58;15.85;;;3.38;;
43580;SDS011;29175;51.030;4.606;2023-03-30T14:46:39;19.58;;;3.97;;
43580;SDS011;29175;51.030;4.606;2023-03-30T14:49:07;11.77;;;2.70;;
43580;SDS011;29175;51.030;4.606;2023-03-30T14:51:48;14.93;;;2.72;;
43580;SDS011;29175;51.030;4.606;2023-03-30T14:54:19;19.52;;;3.60;;
43580;SDS011;29175;51.030;4.606;2023-03-30T14:56:51;17.45;;;3.42;;
43580;SDS011;29175;51.030;4.606;2023-03-30T14:59:27;12.82;;;3.05;;
43580;SDS011;29175;51.030;4.606;2023-03-30T15:01:56;14.27;;;3.57;;
43580;SDS011;29175;51.030;4.606;2023-03-30T15:04:23;16.08;;;3.72;;
43580;SDS011;29175;51.030;4.606;2023-03-30T15:06:52;18.63;;;4.60;;
43580;SDS011;29175;51.030;4.606;2023-03-30T15:09:23;18.80;;;3.83;;
43580;SDS011;29175;51.030;4.606;2023-03-30T15:11:50;10.23;;;2.95;;
43580;SDS011;29175;51.030;4.606;2023-03-30T15:14:23;16.73;;;3.90;;
43580;SDS011;29175;51.030;4.606;2023-03-30T15:16:51;11.88;;;3.08;;
43580;SDS011;29175;51.030;4.606;2023-03-30T15:19:24;20.45;;;4.13;;
43580;SDS011;29175;51.030;4.606;2023-03-30T15:21:55;14.18;;;3.50;;
43580;SDS011;29175;51.030;4.606;2023-03-30T15:24:26;16.90;;;3.80;;
43580;SDS011;29175;51.030;4.606;2023-03-30T15:29:22;14.98;;;3.90;;
43580;SDS011;29175;51.030;4.606;2023-03-30T15:35:07;18.45;;;3.95;;
43580;SDS011;29175;51.030;4.606;2023-03-30T15:37:43;15.75;;;3.58;;
43580;SDS011;29175;51.030;4.606;2023-03-30T15:48:41;18.35;;;3.75;;
43580;SDS011;29175;51.030;4.606;2023-03-30T15:53:42;9.90;;;3.28;;
43580;SDS011;29175;51.030;4.606;2023-03-30T15:56:22;15.02;;;3.50;;
43580;SDS011;29175;51.030;4.606;2023-03-30T15:58:55;14.63;;;3.20;;
43580;SDS011;29175;51.030;4.606;2023-03-30T16:01:22;10.57;;;3.15;;
43580;SDS011;29175;51.030;4.606;2023-03-30T16:03:53;13.70;;;4.38;;
43580;SDS011;29175;51.030;4.606;2023-03-30T16:06:20;9.55;;;3.25;;
43580;SDS011;29175;51.030;4.606;2023-03-30T16:08:46;19.58;;;3.38;;
43580;SDS011;29175;51.030;4.606;2023-03-30T16:11:12;12.32;;;2.65;;
43580;SDS011;29175;51.030;4.606;2023-03-30T16:13:41;13.57;;;3.05;;
43580;SDS011;29175;51.030;4.606;2023-03-30T16:16:09;8.20;;;3.28;;
43580;SDS011;29175;51.030;4.606;2023-03-30T16:18:37;13.38;;;3.00;;
43580;SDS011;29175;51.030;4.606;2023-03-30T16:21:04;15.68;;;3.05;;
43580;SDS011;29175;51.030;4.606;2023-03-30T16:23:31;11.57;;;3.10;;
43580;SDS011;29175;51.030;4.606;2023-03-30T16:25:57;15.75;;;3.67;;
43580;SDS011;29175;51.030;4.606;2023-03-30T16:28:23;9.45;;;3.00;;
43580;SDS011;29175;51.030;4.606;2023-03-30T16:30:50;13.32;;;3.33;;
43580;SDS011;29175;51.030;4.606;2023-03-30T16:33:17;8.07;;;3.00;;
43580;SDS011;29175;51.030;4.606;2023-03-30T16:35:43;10.48;;;2.85;;
43580;SDS011;29175;51.030;4.606;2023-03-30T16:38:13;15.73;;;3.72;;
43580;SDS011;29175;51.030;4.606;2023-03-30T16:40:43;12.65;;;3.40;;
43580;SDS011;29175;51.030;4.606;2023-03-30T16:43:12;19.63;;;4.18;;
43580;SDS011;29175;51.030;4.606;2023-03-30T16:45:38;21.23;;;3.45;;
43580;SDS011;29175;51.030;4.606;2023-03-30T16:48:04;15.48;;;3.25;;
43580;SDS011;29175;51.030;4.606;2023-03-30T16:50:35;18.00;;;3.28;;
43580;SDS011;29175;51.030;4.606;2023-03-30T16:53:02;15.20;;;3.80;;
43580;SDS011;29175;51.030;4.606;2023-03-30T16:55:28;14.18;;;3.40;;
43580;SDS011;29175;51.030;4.606;2023-03-30T16:57:54;13.07;;;3.05;;
43580;SDS011;29175;51.030;4.606;2023-03-30T17:00:21;12.30;;;3.13;;
43580;SDS011;29175;51.030;4.606;2023-03-30T17:02:50;14.15;;;3.25;;
43580;SDS011;29175;51.030;4.606;2023-03-30T17:05:16;16.10;;;3.55;;
43580;SDS011;29175;51.030;4.606;2023-03-30T17:07:42;12.73;;;3.50;;
43580;SDS011;29175;51.030;4.606;2023-03-30T17:10:13;16.45;;;3.20;;
43580;SDS011;29175;51.030;4.606;2023-03-30T17:12:57;8.88;;;2.90;;
43580;SDS011;29175;51.030;4.606;2023-03-30T17:15:24;14.95;;;3.17;;
43580;SDS011;29175;51.030;4.606;2023-03-30T17:17:50;5.13;;;2.40;;
43580;SDS011;29175;51.030;4.606;2023-03-30T17:20:34;8.20;;;3.13;;
43580;SDS011;29175;51.030;4.606;2023-03-30T17:23:04;21.95;;;3.20;;
43580;SDS011;29175;51.030;4.606;2023-03-30T17:25:30;9.57;;;2.85;;
43580;SDS011;29175;51.030;4.606;2023-03-30T17:27:56;16.73;;;3.45;;
43580;SDS011;29175;51.030;4.606;2023-03-30T17:30:23;13.88;;;3.10;;
43580;SDS011;29175;51.030;4.606;2023-03-30T17:32:51;14.82;;;3.83;;
43580;SDS011;29175;51.030;4.606;2023-03-30T17:35:19;9.73;;;2.92;;
43580;SDS011;29175;51.030;4.606;2023-03-30T17:37:45;6.78;;;2.78;;
43580;SDS011;29175;51.030;4.606;2023-03-30T17:40:15;14.48;;;3.30;;